Time;durP1;ratioP1;P1;durP2;ratioP2;P2;SDS_P1;SDS_P2;PMS_P1;PMS_P2;Temp;Humidity;BMP_temperature;BMP_pressure;BME280_temperature;BME280_humidity;BME280_pressure;Samples;Min_cycle;Max_cycle;Signal;HPM_P1;HPM_P2
2022/12/28 00:01:45;;;;;;;0.30;0.30;;;;;;;4.48;87.81;100732.53;5072521;28;20250;-78
2022/12/28 00:04:13;;;;;;;0.33;0.33;;;;;;;4.45;88.13;100738.44;5071544;28;20189;-78
2022/12/28 00:06:39;;;;;;;0.50;0.43;;;;;;;4.43;88.12;100731.69;5072266;28;20175;-78
2022/12/28 00:09:04;;;;;;;0.00;0.00;;;;;;;4.33;88.66;100724.31;5071777;28;20236;-78
2022/12/28 00:11:30;;;;;;;0.10;0.00;;;;;;;4.31;88.67;100715.66;5071872;28;20392;-78
2022/12/28 00:13:56;;;;;;;0.43;0.20;;;;;;;4.35;89.07;100714.06;5071631;28;20175;-78
2022/12/28 00:16:31;;;;;;;0.00;0.00;;;;;;;4.30;89.23;100710.50;5071588;28;20181;-78
2022/12/28 00:18:59;;;;;;;0.00;0.00;;;;;;;4.23;89.27;100696.44;5071734;28;20190;-78
2022/12/28 00:21:25;;;;;;;0.00;0.00;;;;;;;4.18;89.94;100692.59;5071494;28;20676;-78
2022/12/28 00:23:52;;;;;;;0.10;0.10;;;;;;;4.07;90.12;100687.44;5071212;28;20174;-79
2022/12/28 00:26:18;;;;;;;0.00;0.00;;;;;;;4.13;90.43;100683.66;5071470;28;20257;-77
2022/12/28 00:28:43;;;;;;;0.07;0.00;;;;;;;4.19;90.25;100685.31;5071408;28;20178;-77
2022/12/28 00:31:09;;;;;;;0.00;0.00;;;;;;;4.15;89.85;100676.91;5071257;28;20193;-79
2022/12/28 00:33:34;;;;;;;0.00;0.00;;;;;;;4.09;90.20;100672.56;5071304;28;20182;-78
2022/12/28 00:36:01;;;;;;;0.00;0.00;;;;;;;4.12;90.66;100684.75;5071277;28;20577;-76
2022/12/28 00:38:30;;;;;;;5.83;0.50;;;;;;;4.16;90.05;100669.59;5070872;28;20686;-77
2022/12/28 00:40:56;;;;;;;0.83;0.83;;;;;;;4.15;89.98;100666.09;5071029;28;20171;-78
2022/12/28 00:43:21;;;;;;;1.00;0.50;;;;;;;4.20;90.06;100670.72;5070992;28;20167;-78
2022/12/28 00:45:47;;;;;;;0.00;0.00;;;;;;;4.04;90.06;100655.50;5070957;28;20518;-78
2022/12/28 00:48:14;;;;;;;0.50;0.50;;;;;;;4.11;89.98;100665.00;5070906;28;20166;-78
2022/12/28 00:50:40;;;;;;;0.00;0.00;;;;;;;4.05;89.83;100657.97;5070866;28;20261;-77
2022/12/28 00:53:06;;;;;;;0.00;0.00;;;;;;;4.07;89.98;100649.56;5070596;28;20193;-79
2022/12/28 00:55:32;;;;;;;0.00;0.00;;;;;;;4.07;89.64;100652.28;5071099;28;20633;-77
2022/12/28 00:58:01;;;;;;;0.03;0.03;;;;;;;4.12;89.81;100642.28;5070808;28;20495;-77
2022/12/28 01:00:27;;;;;;;0.00;0.00;;;;;;;4.05;89.94;100641.75;5071098;28;20627;-79
2022/12/28 01:02:53;;;;;;;0.00;0.00;;;;;;;4.08;89.80;100643.09;5070297;28;20183;-79
2022/12/28 01:05:19;;;;;;;1.00;0.93;;;;;;;4.05;89.84;100639.03;5070706;28;20178;-79
2022/12/28 01:07:44;;;;;;;0.00;0.00;;;;;;;4.08;90.05;100622.28;5070624;28;20163;-78
2022/12/28 01:10:09;;;;;;;0.00;0.00;;;;;;;4.10;89.70;100609.31;5070776;28;20174;-77
2022/12/28 01:12:35;;;;;;;0.00;0.00;;;;;;;3.95;90.31;100606.53;5070639;28;20197;-79
2022/12/28 01:15:01;;;;;;;0.00;0.00;;;;;;;3.68;91.55;100597.75;5070633;28;20181;-78
2022/12/28 01:17:27;;;;;;;0.00;0.00;;;;;;;3.83;92.15;100606.75;5070359;28;20225;-78
2022/12/28 01:19:52;;;;;;;0.00;0.00;;;;;;;3.78;91.76;100598.63;5070489;28;20585;-78
2022/12/28 01:22:18;;;;;;;0.00;0.00;;;;;;;3.83;91.62;100600.53;5070431;28;20171;-79
2022/12/28 01:24:43;;;;;;;0.00;0.00;;;;;;;3.70;91.82;100591.00;5070235;28;20295;-78
2022/12/28 01:27:08;;;;;;;0.00;0.00;;;;;;;3.75;92.21;100588.31;5070332;28;20665;-77
2022/12/28 01:29:34;;;;;;;0.00;0.00;;;;;;;3.89;92.13;100583.25;5070394;28;20171;-78
2022/12/28 01:31:59;;;;;;;0.00;0.00;;;;;;;3.73;92.45;100578.84;5070265;28;20536;-78
2022/12/28 01:34:25;;;;;;;0.00;0.00;;;;;;;3.79;92.28;100561.59;5070168;28;20170;-77
2022/12/28 01:36:50;;;;;;;0.47;0.33;;;;;;;3.92;92.27;100565.72;5068930;28;20202;-77
2022/12/28 01:39:15;;;;;;;9.00;1.37;;;;;;;3.95;91.82;100554.38;5070233;28;20178;-77
2022/12/28 01:41:41;;;;;;;0.00;0.00;;;;;;;4.06;91.02;100566.84;5070145;28;20633;-78
2022/12/28 01:44:06;;;;;;;0.10;0.10;;;;;;;4.05;90.70;100555.22;5070027;28;20176;-77
2022/12/28 01:46:37;;;;;;;0.00;0.00;;;;;;;4.15;90.06;100543.63;5070484;28;20170;-76
2022/12/28 01:49:27;;;;;;;1.70;1.10;;;;;;;4.22;89.82;100543.38;5071811;28;20170;-77
2022/12/28 01:52:02;;;;;;;0.20;0.20;;;;;;;4.19;89.87;100542.00;5060414;28;20677;-79
2022/12/28 01:54:32;;;;;;;0.00;0.00;;;;;;;4.22;90.03;100543.38;5074579;28;20226;-76
2022/12/28 01:56:58;;;;;;;0.10;0.10;;;;;;;4.21;90.05;100541.75;5074973;28;20269;-76
2022/12/28 01:59:27;;;;;;;0.37;0.37;;;;;;;4.24;89.97;100531.22;5074613;28;20643;-75
2022/12/28 02:01:52;;;;;;;0.10;0.10;;;;;;;4.18;90.21;100516.84;5074473;28;20179;-75
2022/12/28 02:04:17;;;;;;;0.00;0.00;;;;;;;4.25;89.90;100511.19;5074213;28;20193;-75
2022/12/28 02:06:43;;;;;;;0.00;0.00;;;;;;;4.21;90.05;100498.50;5074680;28;20177;-75
2022/12/28 02:09:23;;;;;;;0.00;0.00;;;;;;;4.27;90.34;100487.41;5074449;28;20574;-76
2022/12/28 02:11:50;;;;;;;0.40;0.40;;;;;;;4.31;90.32;100490.38;5074305;28;20178;-75
2022/12/28 02:14:18;;;;;;;0.63;0.30;;;;;;;4.29;90.53;100479.81;5074070;28;20660;-75
2022/12/28 02:16:43;;;;;;;0.00;0.00;;;;;;;4.33;90.45;100480.09;5074358;28;20195;-75
2022/12/28 02:19:12;;;;;;;0.00;0.00;;;;;;;4.32;90.42;100478.47;5074149;28;20275;-75
2022/12/28 02:21:56;;;;;;;0.60;0.60;;;;;;;4.37;90.19;100479.31;5074054;28;20258;-75
2022/12/28 02:24:48;;;;;;;0.10;0.10;;;;;;;4.41;89.89;100482.28;5072571;28;20642;-75
2022/12/28 02:27:28;;;;;;;0.10;0.10;;;;;;;4.35;90.31;100472.56;5073553;28;20696;-75
2022/12/28 02:30:06;;;;;;;0.00;0.00;;;;;;;4.38;90.05;100462.00;5073966;28;20172;-75
2022/12/28 02:32:43;;;;;;;0.00;0.00;;;;;;;4.35;90.23;100467.16;5073803;28;20630;-75
2022/12/28 02:35:31;;;;;;;7.37;1.90;;;;;;;4.39;90.67;100454.69;5074240;28;20525;-75
2022/12/28 02:38:06;;;;;;;8.50;1.50;;;;;;;4.46;90.11;100457.94;5073972;28;20194;-75
2022/12/28 02:40:38;;;;;;;4.33;2.00;;;;;;;4.49;89.80;100443.88;5072448;28;20251;-75
2022/12/28 02:43:03;;;;;;;2.10;0.80;;;;;;;4.50;89.36;100440.09;5073514;28;20170;-75
2022/12/28 02:51:16;;;;;;;0.00;0.00;;;;;;;4.47;89.67;100433.31;5073860;28;20536;-75
2022/12/28 02:57:20;;;;;;;0.37;0.27;;;;;;;4.57;89.97;100416.28;5073540;28;20239;-75
2022/12/28 03:00:05;;;;;;;0.50;0.50;;;;;;;4.65;89.49;100399.50;5073387;28;20175;-74
2022/12/28 03:02:49;;;;;;;3.60;1.57;;;;;;;4.66;89.74;100406.53;5071921;28;20170;-75
2022/12/28 03:08:37;;;;;;;1.93;1.70;;;;;;;4.78;89.26;100392.72;5073514;28;20198;-75
2022/12/28 03:11:13;;;;;;;0.40;0.40;;;;;;;4.80;89.44;100382.41;5071875;28;20171;-75
2022/12/28 03:13:57;;;;;;;0.60;0.47;;;;;;;4.80;89.30;100382.41;5073325;28;20182;-75
2022/12/28 03:16:31;;;;;;;1.00;0.80;;;;;;;4.85;89.05;100393.22;5071869;28;20182;-75
2022/12/28 03:33:01;;;;;;;1.13;0.67;;;;;;;4.81;92.67;100348.84;5072982;28;20261;-76
2022/12/28 03:35:36;;;;;;;2.23;1.63;;;;;;;4.81;92.87;100329.09;5073059;28;20175;-74
2022/12/28 03:38:02;;;;;;;1.23;1.07;;;;;;;4.81;92.87;100340.72;5072981;28;20206;-74
2022/12/28 03:40:41;;;;;;;0.50;0.50;;;;;;;4.85;92.41;100341.78;5072901;28;20505;-75
2022/12/28 03:46:03;;;;;;;7.00;1.03;;;;;;;4.89;93.35;100331.22;5072711;28;20588;-75
2022/12/28 03:48:32;;;;;;;3.20;0.50;;;;;;;4.87;93.84;100341.50;5072592;28;20175;-75
2022/12/28 03:50:58;;;;;;;1.53;1.50;;;;;;;4.88;94.18;100325.00;5072670;28;20650;-75
2022/12/28 03:53:31;;;;;;;0.33;0.33;;;;;;;4.87;95.28;100322.56;5072508;28;20530;-75
2022/12/28 03:56:07;;;;;;;1.00;0.77;;;;;;;4.87;95.71;100323.38;5071142;28;20732;-75
2022/12/28 03:58:32;;;;;;;1.47;1.37;;;;;;;4.70;97.55;100312.88;5072151;28;20468;-75
2022/12/28 04:00:57;;;;;;;1.47;0.70;;;;;;;4.81;97.49;100308.25;5072286;28;20257;-75
2022/12/28 04:03:22;;;;;;;3.40;2.10;;;;;;;4.84;97.78;100310.41;5072147;28;20240;-75
2022/12/28 04:05:48;;;;;;;0.97;0.33;;;;;;;4.86;97.26;100304.72;5072368;28;20296;-75
2022/12/28 04:08:13;;;;;;;0.20;0.20;;;;;;;4.89;96.97;100293.31;5072143;28;20657;-75
2022/12/28 04:10:38;;;;;;;0.57;0.57;;;;;;;4.92;96.48;100287.34;5071001;28;20178;-75
2022/12/28 04:13:04;;;;;;;0.90;0.90;;;;;;;4.93;96.46;100272.75;5071195;28;20220;-75
2022/12/28 04:15:29;;;;;;;3.90;0.80;;;;;;;4.94;96.40;100256.22;5070604;28;20227;-75
2022/12/28 04:17:54;;;;;;;0.30;0.30;;;;;;;4.90;96.17;100246.22;5071862;28;20198;-75
2022/12/28 04:20:19;;;;;;;1.57;1.07;;;;;;;4.98;95.70;100238.34;5071931;28;20235;-75
2022/12/28 04:22:45;;;;;;;1.63;0.90;;;;;;;4.97;96.06;100235.91;5071173;28;20174;-74
2022/12/28 04:25:10;;;;;;;1.90;1.00;;;;;;;5.00;95.85;100236.16;5071766;28;20263;-75
2022/12/28 04:27:35;;;;;;;0.93;0.93;;;;;;;5.02;95.74;100230.44;5071659;28;20173;-75
2022/12/28 04:30:01;;;;;;;0.10;0.10;;;;;;;5.01;96.05;100220.72;5070682;28;20523;-75
2022/12/28 04:32:26;;;;;;;1.10;0.93;;;;;;;5.03;96.09;100213.94;5071535;28;20178;-75
2022/12/28 04:34:51;;;;;;;0.13;0.13;;;;;;;5.03;96.22;100207.69;5070473;28;20634;-75
2022/12/28 04:37:16;;;;;;;0.67;0.67;;;;;;;5.09;96.06;100209.31;5071410;28;20198;-75
2022/12/28 04:39:42;;;;;;;0.20;0.20;;;;;;;5.12;95.96;100199.81;5071574;28;20642;-75
2022/12/28 04:42:07;;;;;;;0.40;0.40;;;;;;;5.14;95.62;100200.34;5071832;28;20166;-74
2022/12/28 04:44:32;;;;;;;0.00;0.00;;;;;;;5.12;95.85;100183.56;5071283;28;20480;-75
2022/12/28 04:46:58;;;;;;;0.00;0.00;;;;;;;5.20;95.35;100186.47;5071389;28;20276;-75
2022/12/28 04:49:23;;;;;;;0.00;0.00;;;;;;;5.23;95.63;100171.56;5071627;28;20551;-75
2022/12/28 04:51:48;;;;;;;0.40;0.30;;;;;;;5.23;95.37;100164.25;5069970;28;20174;-75
2022/12/28 04:54:14;;;;;;;0.10;0.10;;;;;;;5.25;95.17;100162.06;5070982;28;20574;-75
2022/12/28 04:56:39;;;;;;;0.93;0.83;;;;;;;5.31;95.14;100152.00;5071145;28;20205;-75
2022/12/28 04:59:04;;;;;;;0.60;0.60;;;;;;;5.34;95.02;100159.53;5071172;28;20201;-75
2022/12/28 05:01:30;;;;;;;1.20;1.10;;;;;;;5.36;95.19;100160.09;5071088;28;20202;-75
2022/12/28 05:03:55;;;;;;;3.60;0.93;;;;;;;5.38;94.92;100153.31;5070755;28;20178;-74
2022/12/28 05:06:22;;;;;;;3.75;1.30;;;;;;;5.38;95.32;100155.19;5070460;28;20922;-74
2022/12/28 05:08:48;;;;;;;1.07;0.93;;;;;;;5.45;95.47;100146.72;5071039;28;20185;-74
2022/12/28 05:11:16;;;;;;;1.00;0.93;;;;;;;5.45;95.34;100136.69;5070888;28;20174;-75
2022/12/28 05:13:42;;;;;;;0.90;0.90;;;;;;;5.45;95.37;100136.69;5070652;28;20249;-75
2022/12/28 05:16:09;;;;;;;1.00;0.83;;;;;;;5.48;95.58;100129.91;5070891;28;20253;-75
2022/12/28 05:18:35;;;;;;;2.30;1.13;;;;;;;5.50;95.74;100146.72;5070734;28;20557;-74
2022/12/28 05:21:15;;;;;;;0.50;0.50;;;;;;;5.46;96.21;100127.47;5070882;28;20179;-74
2022/12/28 05:23:41;;;;;;;0.73;0.43;;;;;;;5.46;96.31;100137.50;5069703;28;20188;-75
2022/12/28 05:26:09;;;;;;;0.97;0.97;;;;;;;5.48;96.48;100138.03;5070721;28;20170;-75
2022/12/28 05:28:35;;;;;;;3.63;1.40;;;;;;;5.48;96.58;100143.44;5071097;28;20177;-75
2022/12/28 05:31:03;;;;;;;0.40;0.40;;;;;;;5.48;96.53;100121.78;5070864;28;20630;-75
2022/12/28 05:33:30;;;;;;;1.20;1.03;;;;;;;5.50;97.09;100125.84;5070480;28;20326;-74
2022/12/28 05:36:00;;;;;;;7.10;0.93;;;;;;;5.52;96.89;100122.84;5068949;28;20582;-74
2022/12/28 05:38:26;;;;;;;1.10;1.10;;;;;;;5.52;96.82;100101.16;5070607;28;20194;-75
2022/12/28 05:40:51;;;;;;;2.10;1.27;;;;;;;5.50;96.86;100109.59;5070497;28;20174;-75
2022/12/28 05:43:16;;;;;;;1.33;0.90;;;;;;;5.54;96.43;100109.81;5070386;28;20173;-74
2022/12/28 05:45:41;;;;;;;0.60;0.60;;;;;;;5.58;96.68;100102.72;5070601;28;20170;-75
2022/12/28 05:48:07;;;;;;;0.30;0.30;;;;;;;5.63;96.70;100113.50;5071131;28;20170;-75
2022/12/28 05:50:33;;;;;;;0.60;0.43;;;;;;;5.65;96.36;100112.13;5069189;28;20595;-74
2022/12/28 05:52:58;;;;;;;1.57;1.43;;;;;;;5.64;96.34;100107.81;5070355;28;20179;-74
2022/12/28 05:55:23;;;;;;;0.87;0.87;;;;;;;5.65;96.32;100114.03;5070450;28;20174;-75
2022/12/28 05:57:48;;;;;;;0.87;0.87;;;;;;;5.68;96.59;100111.56;5069069;28;20206;-74
2022/12/28 06:00:14;;;;;;;0.77;0.77;;;;;;;5.70;96.30;100111.28;5070474;28;20174;-75
2022/12/28 06:02:39;;;;;;;0.27;0.27;;;;;;;5.72;96.36;100111.78;5070140;28;20630;-74
2022/12/28 06:05:05;;;;;;;2.03;1.17;;;;;;;5.74;96.39;100104.16;5070324;28;20669;-75
2022/12/28 06:07:30;;;;;;;0.80;0.80;;;;;;;5.78;96.34;100101.69;5070078;28;20669;-75
2022/12/28 06:09:55;;;;;;;0.23;0.23;;;;;;;5.80;96.13;100103.03;5070480;28;20265;-74
2022/12/28 06:12:21;;;;;;;0.77;0.40;;;;;;;5.80;96.28;100086.78;5068643;28;20205;-78
2022/12/28 06:14:46;;;;;;;1.40;1.30;;;;;;;5.84;95.95;100103.25;5069945;28;20178;-78
2022/12/28 06:17:11;;;;;;;0.40;0.40;;;;;;;5.80;95.98;100092.19;5070043;28;20202;-78
2022/12/28 06:19:36;;;;;;;0.63;0.63;;;;;;;5.83;96.16;100088.09;5068920;28;20367;-77
2022/12/28 06:22:02;;;;;;;0.90;0.90;;;;;;;5.87;95.97;100087.22;5070038;28;20175;-76
2022/12/28 06:24:27;;;;;;;0.77;0.77;;;;;;;5.88;96.25;100083.41;5068674;28;20179;-78
2022/12/28 06:26:52;;;;;;;1.10;1.10;;;;;;;5.94;96.12;100082.31;5070037;28;20174;-78
2022/12/28 06:29:18;;;;;;;0.10;0.10;;;;;;;5.95;96.14;100081.19;5070074;28;20181;-77
2022/12/28 06:31:50;;;;;;;0.20;0.20;;;;;;;6.03;97.00;100073.50;5070104;28;20183;-77
2022/12/28 06:34:16;;;;;;;0.20;0.20;;;;;;;6.03;97.07;100066.19;5070043;28;20173;-76
2022/12/28 06:36:43;;;;;;;0.83;0.73;;;;;;;6.06;97.12;100064.78;5072417;28;20174;-75
2022/12/28 06:39:11;;;;;;;0.10;0.10;;;;;;;6.05;97.67;100058.56;5073842;28;20300;-76
2022/12/28 06:41:38;;;;;;;1.30;0.50;;;;;;;6.03;98.30;100063.47;5072270;28;20800;-78
2022/12/28 06:44:07;;;;;;;0.00;0.00;;;;;;;6.01;99.23;100056.72;5073475;28;20188;-78
2022/12/28 06:46:33;;;;;;;0.63;0.40;;;;;;;6.01;100.00;100064.88;5073640;28;20174;-77
2022/12/28 06:48:59;;;;;;;0.47;0.40;;;;;;;5.97;100.00;100054.59;5072215;28;20179;-77
2022/12/28 06:51:39;;;;;;;0.30;0.30;;;;;;;5.96;100.00;100054.91;5073365;28;20189;-77
2022/12/28 06:54:05;;;;;;;0.00;0.00;;;;;;;5.97;100.00;100040.25;5072176;28;20553;-77
2022/12/28 06:56:32;;;;;;;0.83;0.60;;;;;;;5.98;100.00;100033.72;5073393;28;20174;-77
2022/12/28 06:58:58;;;;;;;1.43;1.33;;;;;;;6.01;100.00;100041.25;5073252;28;20267;-77
2022/12/28 07:01:27;;;;;;;0.17;0.17;;;;;;;6.04;100.00;100037.16;5073268;28;20245;-76
2022/12/28 07:03:54;;;;;;;0.07;0.07;;;;;;;6.05;100.00;100034.16;5072928;28;20646;-77
2022/12/28 07:06:22;;;;;;;0.40;0.40;;;;;;;6.06;100.00;100034.97;5073195;28;20187;-77
2022/12/28 07:08:48;;;;;;;0.47;0.47;;;;;;;6.05;100.00;100022.50;5073493;28;20183;-76
2022/12/28 07:11:17;;;;;;;0.97;0.97;;;;;;;6.04;100.00;100020.88;5072113;28;20181;-77
2022/12/28 07:13:42;;;;;;;1.97;1.50;;;;;;;6.04;100.00;100037.97;5072805;28;20210;-77
2022/12/28 07:16:14;;;;;;;2.73;1.10;;;;;;;6.02;100.00;100013.06;5072768;28;20320;-76
2022/12/28 07:18:40;;;;;;;0.17;0.17;;;;;;;5.98;100.00;100012.03;5072656;28;20206;-77
2022/12/28 07:21:20;;;;;;;1.40;0.93;;;;;;;5.97;100.00;100010.41;5072960;28;20305;-78
2022/12/28 07:23:45;;;;;;;0.90;0.83;;;;;;;5.92;100.00;100018.59;5073182;28;20687;-79
2022/12/28 07:26:13;;;;;;;1.00;1.00;;;;;;;5.89;100.00;100025.38;5073199;28;20170;-77
2022/12/28 07:28:40;;;;;;;2.67;0.77;;;;;;;5.90;100.00;100026.22;5079151;28;20181;-79
2022/12/28 07:31:07;;;;;;;0.90;0.70;;;;;;;5.94;100.00;100024.56;5073338;28;20178;-79
2022/12/28 07:33:34;;;;;;;0.13;0.13;;;;;;;5.96;100.00;100006.91;5073191;28;20534;-77
2022/12/28 07:35:59;;;;;;;0.27;0.27;;;;;;;5.94;100.00;100011.81;5072906;28;20202;-78
2022/12/28 07:38:25;;;;;;;0.00;0.00;;;;;;;5.94;100.00;100009.09;5071760;28;20617;-77
2022/12/28 07:40:50;;;;;;;0.83;0.57;;;;;;;5.90;100.00;100026.22;5073404;28;20179;-78
2022/12/28 07:43:15;;;;;;;6.03;1.67;;;;;;;5.97;100.00;100023.97;5072723;28;20183;-78
2022/12/28 07:45:41;;;;;;;1.47;0.40;;;;;;;5.97;100.00;100022.06;5072449;28;20185;-76
2022/12/28 07:48:06;;;;;;;0.10;0.10;;;;;;;5.97;100.00;100005.78;5070902;28;20183;-78
2022/12/28 07:50:31;;;;;;;1.60;0.93;;;;;;;6.01;100.00;100010.63;5071484;28;20185;-77
2022/12/28 07:52:56;;;;;;;2.73;0.60;;;;;;;6.04;100.00;100016.28;5070966;28;20175;-78
2022/12/28 07:55:23;;;;;;;0.30;0.30;;;;;;;6.07;100.00;100004.84;5071198;28;20202;-78
2022/12/28 07:57:50;;;;;;;0.20;0.20;;;;;;;6.10;100.00;100006.97;5072225;28;20198;-78
2022/12/28 08:00:17;;;;;;;0.53;0.53;;;;;;;6.12;100.00;100010.22;5072370;28;20179;-78
2022/12/28 08:02:42;;;;;;;0.40;0.40;;;;;;;6.13;100.00;100016.44;5070604;28;20663;-77
2022/12/28 08:05:08;;;;;;;0.30;0.30;;;;;;;6.14;100.00;100029.69;5071175;28;20211;-77
2022/12/28 08:07:33;;;;;;;0.97;0.97;;;;;;;6.18;100.00;100035.34;5070894;28;20182;-77
2022/12/28 08:09:58;;;;;;;1.13;0.70;;;;;;;6.21;100.00;100027.41;5072401;28;20228;-77
2022/12/28 08:12:24;;;;;;;0.50;0.30;;;;;;;6.24;100.00;100017.91;5072358;28;20539;-75
2022/12/28 08:14:50;;;;;;;0.37;0.33;;;;;;;6.24;100.00;100026.06;5070531;28;20622;-75
2022/12/28 08:17:15;;;;;;;0.53;0.53;;;;;;;6.26;100.00;100015.72;5072125;28;20205;-75
2022/12/28 08:19:40;;;;;;;0.43;0.43;;;;;;;6.26;100.00;100019.22;5071629;28;20171;-75
2022/12/28 08:22:06;;;;;;;1.30;0.60;;;;;;;6.32;100.00;100019.16;5071722;28;20602;-76
2022/12/28 08:24:31;;;;;;;1.80;1.40;;;;;;;6.32;100.00;100002.88;5071639;28;20179;-76
2022/12/28 08:26:56;;;;;;;0.00;0.00;;;;;;;6.31;100.00;100002.06;5071758;28;20672;-75
2022/12/28 08:29:22;;;;;;;0.50;0.50;;;;;;;6.36;100.00;100014.75;5071988;28;20182;-75
2022/12/28 08:31:48;;;;;;;0.13;0.10;;;;;;;6.38;100.00;100002.53;5071697;28;20178;-75
2022/12/28 08:34:19;;;;;;;1.27;0.67;;;;;;;6.41;100.00;99998.41;5071392;28;20175;-75
2022/12/28 08:36:44;;;;;;;0.80;0.70;;;;;;;6.42;100.00;100002.72;5071645;28;20312;-74
2022/12/28 08:39:09;;;;;;;0.60;0.60;;;;;;;6.43;100.00;99999.72;5071399;28;20736;-75
2022/12/28 08:41:35;;;;;;;0.50;0.50;;;;;;;6.44;100.00;99993.19;5071579;28;20170;-75
2022/12/28 08:44:00;;;;;;;1.43;0.80;;;;;;;6.47;100.00;100002.63;5069775;28;20197;-76
2022/12/28 08:46:28;;;;;;;0.30;0.30;;;;;;;6.49;100.00;100003.16;5071044;28;20171;-76
2022/12/28 08:48:55;;;;;;;0.63;0.63;;;;;;;6.52;100.00;100002.59;5071328;28;20598;-75
2022/12/28 08:51:24;;;;;;;0.40;0.40;;;;;;;6.54;100.00;100011.22;5071562;28;20178;-76
2022/12/28 08:53:49;;;;;;;0.50;0.50;;;;;;;6.55;100.00;100010.94;5071165;28;20277;-75
2022/12/28 08:56:18;;;;;;;0.20;0.20;;;;;;;6.58;100.00;100009.53;5071217;28;20249;-74
2022/12/28 08:58:45;;;;;;;0.23;0.23;;;;;;;6.57;100.00;100011.44;5070812;28;20238;-76
2022/12/28 09:01:19;;;;;;;0.70;0.70;;;;;;;6.59;100.00;100019.28;5071150;28;20181;-76
2022/12/28 09:03:46;;;;;;;0.50;0.20;;;;;;;6.58;100.00;100023.09;5070747;28;20456;-76
2022/12/28 09:06:14;;;;;;;0.60;0.60;;;;;;;6.62;100.00;100021.41;5069796;28;20590;-76
2022/12/28 09:08:40;;;;;;;0.53;0.53;;;;;;;6.61;100.00;100025.22;5070965;28;20182;-75
2022/12/28 09:11:08;;;;;;;1.07;0.70;;;;;;;6.65;100.00;100034.38;5071044;28;20492;-75
2022/12/28 09:13:34;;;;;;;0.73;0.63;;;;;;;6.66;100.00;100027.06;5070845;28;20266;-74
2022/12/28 09:16:05;;;;;;;0.30;0.30;;;;;;;6.70;100.00;100034.31;5069211;28;20178;-75
2022/12/28 09:18:31;;;;;;;0.60;0.60;;;;;;;6.72;100.00;100025.88;5069091;28;20289;-76
2022/12/28 09:21:02;;;;;;;0.27;0.27;;;;;;;6.78;100.00;100041.78;5070369;28;20167;-76
2022/12/28 09:23:27;;;;;;;1.77;0.43;;;;;;;6.80;100.00;100045.03;5068115;28;20166;-75
2022/12/28 09:25:53;;;;;;;0.60;0.60;;;;;;;6.84;100.00;100032.47;5070309;28;20170;-75
2022/12/28 09:28:18;;;;;;;0.77;0.77;;;;;;;6.82;100.00;100026.53;5069446;28;20236;-75
2022/12/28 09:30:43;;;;;;;0.50;0.37;;;;;;;6.86;100.00;100029.44;5070648;28;20177;-76
2022/12/28 09:35:59;;;;;;;0.70;0.70;;;;;;;6.96;100.00;100033.91;5070763;28;20261;-73
2022/12/28 09:38:25;;;;;;;0.63;0.63;;;;;;;6.94;100.00;100033.38;5067380;28;20601;-77
2022/12/28 09:40:50;;;;;;;0.30;0.30;;;;;;;6.95;100.00;100024.97;5068658;28;20167;-76
2022/12/28 09:43:16;;;;;;;0.37;0.37;;;;;;;6.95;100.00;100027.66;5069971;28;20175;-77
2022/12/28 09:45:45;;;;;;;0.53;0.10;;;;;;;6.98;100.00;100031.69;5069133;28;20515;-75
2022/12/28 09:48:15;;;;;;;0.30;0.30;;;;;;;7.03;100.00;100037.84;5072679;28;20210;-89
2022/12/28 09:50:42;;;;;;;0.70;0.33;;;;;;;7.06;100.00;100034.53;5072440;28;20167;-76
2022/12/28 09:53:23;;;;;;;0.83;0.73;;;;;;;7.10;100.00;100035.56;5070845;28;20616;-76
2022/12/28 09:56:18;;;;;;;0.10;0.10;;;;;;;7.14;100.00;100031.13;5069497;28;20182;-75
2022/12/28 09:58:43;;;;;;;0.20;0.13;;;;;;;7.13;100.00;100032.25;5056038;28;20307;-73
2022/12/28 10:01:13;;;;;;;0.53;0.37;;;;;;;7.16;100.00;100036.25;5070406;28;20238;-74
2022/12/28 10:03:40;;;;;;;0.20;0.20;;;;;;;7.15;100.00;100035.47;5068772;28;20193;-74
2022/12/28 10:06:12;;;;;;;0.40;0.40;;;;;;;7.14;100.00;100044.72;5070344;28;20304;-74
2022/12/28 10:08:50;;;;;;;1.13;0.43;;;;;;;7.16;100.00;100036.25;5071025;28;20181;-75
2022/12/28 10:11:25;;;;;;;0.07;0.07;;;;;;;7.18;100.00;100028.63;5073877;28;20324;-74
2022/12/28 10:13:59;;;;;;;0.87;0.87;;;;;;;7.20;100.00;100039.19;5072794;28;20174;-73
2022/12/28 10:16:29;;;;;;;0.20;0.20;;;;;;;7.20;100.00;100031.84;5074385;28;20228;-74
2022/12/28 10:18:54;;;;;;;0.00;0.00;;;;;;;7.23;100.00;100035.84;5074410;28;20213;-74
2022/12/28 10:21:22;;;;;;;0.10;0.10;;;;;;;7.22;100.00;100026.91;5074130;28;20639;-75
2022/12/28 10:23:51;;;;;;;3.30;0.40;;;;;;;7.18;100.00;100039.47;5073893;28;20328;-75
2022/12/28 10:26:18;;;;;;;0.53;0.20;;;;;;;7.15;100.00;100018.34;5072805;28;20182;-74
2022/12/28 10:28:50;;;;;;;0.00;0.00;;;;;;;7.13;100.00;100024.09;5074401;28;20542;-74
2022/12/28 10:31:30;;;;;;;0.70;0.50;;;;;;;7.12;100.00;100010.81;5074203;28;20186;-74
2022/12/28 10:33:55;;;;;;;0.50;0.50;;;;;;;7.09;100.00;100020.38;5073774;28;20167;-75
2022/12/28 10:36:21;;;;;;;0.50;0.50;;;;;;;7.10;100.00;100013.81;5073942;28;20185;-74
2022/12/28 10:38:54;;;;;;;0.60;0.60;;;;;;;7.11;100.00;100010.00;5073834;28;20935;-75
2022/12/28 10:41:20;;;;;;;0.00;0.00;;;;;;;7.12;100.00;99995.31;5073692;28;20177;-76
2022/12/28 10:43:50;;;;;;;0.50;0.50;;;;;;;7.14;100.00;99995.00;5073892;28;20289;-74
2022/12/28 10:46:17;;;;;;;0.20;0.20;;;;;;;7.17;100.00;100002.56;5073459;28;20182;-75
2022/12/28 10:48:50;;;;;;;0.30;0.30;;;;;;;7.18;100.00;99993.31;5073682;28;20167;-75
2022/12/28 10:51:19;;;;;;;0.17;0.17;;;;;;;7.22;100.00;99993.50;5072171;28;20190;-75
2022/12/28 10:53:50;;;;;;;1.00;0.60;;;;;;;7.28;100.00;99986.88;5073307;28;20638;-75
2022/12/28 10:56:28;;;;;;;0.10;0.10;;;;;;;7.31;100.00;99984.34;5073711;28;20177;-74
2022/12/28 10:59:24;;;;;;;0.07;0.07;;;;;;;7.40;100.00;99987.19;5073481;28;20670;-74
2022/12/28 11:01:50;;;;;;;0.20;0.20;;;;;;;7.45;100.00;99981.66;5073503;28;20296;-74
2022/12/28 11:04:20;;;;;;;0.00;0.00;;;;;;;7.46;100.00;99985.97;5073131;28;20190;-74
2022/12/28 11:07:00;;;;;;;0.20;0.20;;;;;;;7.48;100.00;99978.31;5073365;28;20239;-74
2022/12/28 11:09:27;;;;;;;0.37;0.27;;;;;;;7.52;100.00;99982.03;5071961;28;20185;-74
2022/12/28 11:11:55;;;;;;;0.20;0.20;;;;;;;7.53;100.00;99980.16;5073192;28;20171;-74
2022/12/28 11:14:35;;;;;;;0.00;0.00;;;;;;;7.54;100.00;99968.19;5073144;28;20185;-75
2022/12/28 11:17:23;;;;;;;0.70;0.40;;;;;;;7.56;100.00;99960.53;5072890;28;20662;-75
2022/12/28 11:20:00;;;;;;;2.30;0.40;;;;;;;7.54;100.00;99960.81;5072866;28;20186;-75
2022/12/28 11:22:28;;;;;;;0.20;0.17;;;;;;;7.58;100.00;99964.53;5071897;28;20643;-76
2022/12/28 11:24:54;;;;;;;0.30;0.30;;;;;;;7.61;100.00;99958.50;5073207;28;20177;-75
2022/12/28 11:27:22;;;;;;;0.00;0.00;;;;;;;7.67;100.00;99951.84;5072928;28;20183;-75
2022/12/28 11:29:50;;;;;;;0.10;0.10;;;;;;;7.69;100.00;99949.63;5072869;28;20627;-75
2022/12/28 11:32:24;;;;;;;0.27;0.27;;;;;;;7.73;100.00;99958.78;5072925;28;20638;-75
2022/12/28 11:34:51;;;;;;;0.00;0.00;;;;;;;7.75;100.00;99958.47;5072469;28;20171;-76
2022/12/28 11:37:17;;;;;;;0.00;0.00;;;;;;;7.74;100.00;99948.72;5072757;28;20545;-74
2022/12/28 11:39:47;;;;;;;0.63;0.37;;;;;;;7.77;100.00;99942.66;5071154;28;20179;-74
2022/12/28 11:42:31;;;;;;;0.30;0.30;;;;;;;7.79;100.00;99948.59;5072891;28;20187;-75
2022/12/28 11:44:58;;;;;;;0.27;0.23;;;;;;;7.80;100.00;99952.91;5072469;28;20179;-75
2022/12/28 11:47:31;;;;;;;0.90;0.63;;;;;;;7.83;100.00;99948.81;5072361;28;20533;-75
2022/12/28 11:50:38;;;;;;;0.00;0.00;;;;;;;7.87;100.00;99949.78;5072481;28;20178;-75
2022/12/28 11:53:19;;;;;;;0.93;0.93;;;;;;;7.89;100.00;99942.13;5071547;28;20257;-75
2022/12/28 11:55:56;;;;;;;1.37;1.27;;;;;;;7.90;100.00;99951.91;5072110;28;20194;-75
2022/12/28 11:58:59;;;;;;;0.50;0.50;;;;;;;7.89;100.00;99942.13;5071940;28;20281;-74
2022/12/28 12:01:35;;;;;;;0.37;0.37;;;;;;;7.87;100.00;99936.19;5070728;28;20277;-74
2022/12/28 12:04:10;;;;;;;0.53;0.40;;;;;;;7.88;100.00;99935.91;5071457;28;20209;-74
2022/12/28 12:06:41;;;;;;;7.93;1.27;;;;;;;7.86;100.00;99929.97;5072170;28;20163;-74
2022/12/28 12:09:27;;;;;;;1.07;0.43;;;;;;;7.85;100.00;99927.53;5072235;28;20206;-73
2022/12/28 12:12:00;;;;;;;2.77;1.83;;;;;;;7.74;100.00;99922.31;5071308;28;20198;-74